Map

Track Data

SID SEASON NUMBER BASIN SUBBASIN NAME ISO_TIME NATURE LAT LON WMO_WIND WMO_PRES WMO_AGENCY TRACK_TYPE DIST2LAND LANDFALL IFLAG USA_AGENCY USA_ATCF_ID USA_LAT USA_LON USA_RECORD USA_STATUS USA_WIND USA_PRES USA_SSHS USA_R34_NE USA_R34_SE USA_R34_SW USA_R34_NW USA_R50_NE USA_R50_SE USA_R50_SW USA_R50_NW USA_R64_NE USA_R64_SE USA_R64_SW USA_R64_NW USA_POCI USA_ROCI USA_RMW USA_EYE TOKYO_LAT TOKYO_LON TOKYO_GRADE TOKYO_WIND TOKYO_PRES TOKYO_R50_DIR TOKYO_R50_LONG TOKYO_R50_SHORT TOKYO_R30_DIR TOKYO_R30_LONG TOKYO_R30_SHORT TOKYO_LAND CMA_LAT CMA_LON CMA_CAT CMA_WIND CMA_PRES HKO_LAT HKO_LON HKO_CAT HKO_WIND HKO_PRES NEWDELHI_LAT NEWDELHI_LON NEWDELHI_GRADE NEWDELHI_WIND NEWDELHI_PRES NEWDELHI_CI NEWDELHI_DP NEWDELHI_POCI REUNION_LAT REUNION_LON REUNION_TYPE REUNION_WIND REUNION_PRES REUNION_TNUM REUNION_CI REUNION_RMW REUNION_R34_NE REUNION_R34_SE REUNION_R34_SW REUNION_R34_NW REUNION_R50_NE REUNION_R50_SE REUNION_R50_SW REUNION_R50_NW REUNION_R64_NE REUNION_R64_SE REUNION_R64_SW REUNION_R64_NW BOM_LAT BOM_LON BOM_TYPE BOM_WIND BOM_PRES BOM_TNUM BOM_CI BOM_RMW BOM_R34_NE BOM_R34_SE BOM_R34_SW BOM_R34_NW BOM_R50_NE BOM_R50_SE BOM_R50_SW BOM_R50_NW BOM_R64_NE BOM_R64_SE BOM_R64_SW BOM_R64_NW BOM_ROCI BOM_POCI BOM_EYE BOM_POS_METHOD BOM_PRES_METHOD NADI_LAT NADI_LON NADI_CAT NADI_WIND NADI_PRES WELLINGTON_LAT WELLINGTON_LON WELLINGTON_WIND WELLINGTON_PRES DS824_LAT DS824_LON DS824_STAGE DS824_WIND DS824_PRES TD9636_LAT TD9636_LON TD9636_STAGE TD9636_WIND TD9636_PRES TD9635_LAT TD9635_LON TD9635_WIND TD9635_PRES TD9635_ROCI NEUMANN_LAT NEUMANN_LON NEUMANN_CLASS NEUMANN_WIND NEUMANN_PRES MLC_LAT MLC_LON MLC_CLASS MLC_WIND MLC_PRES USA_GUST BOM_GUST BOM_GUST_PER REUNION_GUST REUNION_GUST_PER USA_SEAHGT USA_SEARAD_NE USA_SEARAD_SE USA_SEARAD_SW USA_SEARAD_NW STORM_SPEED STORM_DIR
1940215N22089 1940 40 NI BB NOT_NAMED 1940-08-02 00:00:00 TS 21.9000 89.3000 main 0 0 _________O____ -1 21.9000 89.3000 TC 45 4 330
1940215N22089 1940 40 NI BB NOT_NAMED 1940-08-02 03:00:00 TS 22.0750 89.1984 main 0 0 _________PO___ -1 22.1625 89.1477 TC 45 21.9000 89.3000 3 4 330
1940215N22089 1940 40 NI BB NOT_NAMED 1940-08-02 06:00:00 TS 22.2889 89.0620 main 0 0 _________OP___ -1 22.4000 89.0000 TC 45 22.1222 89.1550 3 5 328
1940215N22089 1940 40 NI BB NOT_NAMED 1940-08-02 09:00:00 TS 22.4909 88.9218 main 0 0 _________PP___ -1 22.6000 88.8574 TC 45 22.3455 89.0078 3 5 326
1940215N22089 1940 40 NI BB NOT_NAMED 1940-08-02 12:00:00 TS 22.6855 88.7784 main 0 0 _________OP___ -1 22.8000 88.7000 TC 45 22.5711 88.8567 3 5 327
1940215N22089 1940 40 NI BB NOT_NAMED 1940-08-02 15:00:00 TS 22.9287 88.6113 main 0 0 _________PO___ -1 23.0574 88.5225 TC 41 22.8000 88.7000 3 6 325
1940215N22089 1940 40 NI BB NOT_NAMED 1940-08-02 18:00:00 TS 23.1654 88.4157 main 0 0 _________OP___ -1 23.3000 88.3000 TC 37 23.0308 88.5315 3 6 318
1940215N22089 1940 40 NI BB NOT_NAMED 1940-08-02 21:00:00 TS 23.3655 88.1899 main 0 0 _________PP___ -1 23.4797 88.0524 TC 33 23.2512 88.3274 3 6 306
1940215N22089 1940 40 NI BB NOT_NAMED 1940-08-03 00:00:00 TS 23.5230 87.8798 main 0 0 _________OP___ -1 23.6000 87.7000 TC 30 23.4461 88.0597 3 7 291
1940215N22089 1940 40 NI BB NOT_NAMED 1940-08-03 03:00:00 TS 23.6325 87.4474 main 0 0 _________PO___ -1 23.6651 87.1948 TC 30 23.6000 87.7000 1 9 281
1940215N22089 1940 40 NI BB NOT_NAMED 1940-08-03 06:00:00 TS 23.6928 86.9088 main 0 0 _________OP___ -1 23.7000 86.6000 TC 30 23.6857 87.2177 1 10 276
1940215N22089 1940 40 NI BB NOT_NAMED 1940-08-03 09:00:00 TS 23.7404 86.3269 main 0 0 _________PP___ -1 23.7499 86.0075 TC 30 23.7309 86.6463 1 11 275
1940215N22089 1940 40 NI BB NOT_NAMED 1940-08-03 12:00:00 TS 23.7802 85.7135 main 0 0 _________OP___ -1 23.8000 85.4000 TC 30 23.7605 86.0269 1 11 274
1940215N22089 1940 40 NI BB NOT_NAMED 1940-08-03 15:00:00 TS 23.8174 85.0961 main 0 0 _________PO___ -1 23.8349 84.7923 TC 30 23.8000 85.4000 1 11 276
1940215N22089 1940 40 NI BB NOT_NAMED 1940-08-03 18:00:00 TS 23.8911 84.4843 main 0 0 _________OP___ -1 23.9000 84.2000 TC 30 23.8821 84.7685 1 11 280
1940215N22089 1940 40 NI BB NOT_NAMED 1940-08-03 21:00:00 TS 24.0105 83.8717 main 0 0 _________PP___ -1 24.0426 83.5978 TC 30 23.9785 84.1455 1 11 284
1940215N22089 1940 40 NI BB NOT_NAMED 1940-08-04 00:00:00 TS 24.1427 83.3374 main 0 0 _________OP___ -1 24.2000 83.1000 TC 30 24.0854 83.5747 1 9 286
1940215N22089 1940 40 NI BB NOT_NAMED 1940-08-04 03:00:00 TS 24.2498 82.9486 main 0 0 _________PO___ -1 24.2997 82.7973 TC 30 24.2000 83.1000 1 6 290
1940215N22089 1940 40 NI BB NOT_NAMED 1940-08-04 06:00:00 TS 24.3603 82.6789 main 0 0 _________OP___ -1 24.4000 82.6000 TC 30 24.3207 82.7579 1 5 299
1940215N22089 1940 40 NI BB NOT_NAMED 1940-08-04 09:00:00 TS 24.4993 82.4499 main 0 0 _________PP___ -1 24.5500 82.3850 TC 30 24.4486 82.5147 1 5 307
1940215N22089 1940 40 NI BB NOT_NAMED 1940-08-04 12:00:00 TS 24.6387 82.2696 main 0 0 _________OP___ -1 24.7000 82.2000 TC 30 24.5773 82.3392 1 4 310
1940215N22089 1940 40 NI BB NOT_NAMED 1940-08-04 15:00:00 TS 24.7537 82.1175 main 0 0 _________PO___ -1 24.8075 82.0349 TC 30 24.7000 82.2000 1 3 311
1940215N22089 1940 40 NI BB NOT_NAMED 1940-08-04 18:00:00 TS 24.8494 81.9976 main 0 0 _________OP___ -1 24.9000 81.9000 TC 30 24.8114 82.0708 1 3 312
1940215N22089 1940 40 NI BB NOT_NAMED 1940-08-04 21:00:00 TS 24.9468 81.8841 main 0 0 _________PP___ -1 24.9975 81.7925 TC 30 24.9131 81.9452 1 3 314
1940215N22089 1940 40 NI BB NOT_NAMED 1940-08-05 00:00:00 TS 25.0388 81.7814 main 0 0 _________OP___ -1 25.1000 81.7000 TC 30 25.0082 81.8220 1 2 312
1940215N22089 1940 40 NI BB NOT_NAMED 1940-08-05 03:00:00 NR 25.1000 81.7000 main 0 __________O___ -1 TC 25.1000 81.7000 1 2 314

About IBTrACS Database

This database is a web-friendly format of International Best Track Archive for Climate Stewardship (IBTrACS), a global best track data archive curated by NOAA dating back to 1842.

Updated: 2021-12-01